Kardla, Estonia

5:57 AM EEST on August 28, 2015 (GMT +0300)
Kardla | | Change Station
CLOSE
Current Station
Airport
Location: Kardla,
Elevation: 13 ft
Nearby Weather Stations

Elev 13 ft 58.99 °N, 22.83 °E | Updated 7 minutes ago

Light Rain
Light Rain
63 °F
Feels Like 63 °F
N
7
Wind Variable Wind from South

Today
High -- | Low -- °F
--% Chance of Precip.
Yesterday
High -- | Low -- °F
Precip. -- in
6:16 AM 8:42 PM
Waxing Gibbous, 96% visible
Pressure 29.74 in
Visibility 6.2 miles
Clouds Scattered Clouds 800 ft
Mostly Cloudy 6400 ft
Dew Point 61 °F
Humidity 94%
Rainfall 0.00 in
Snow Depth Not available.
UV 0 out of 12
Pollen Not available.
Air Quality Not available.
Flu Activity Not available.
METAR EEKA 280250Z 18006KT 140V220 9999 -RA SCT008 BKN064 17/16 Q1007
Pressure 29.74 in
Visibility 6.2 miles
Clouds Scattered Clouds 800 ft
Mostly Cloudy 6400 ft
Dew Point 61 °F
Humidity 94%
Rainfall 0.00 in
Snow Depth Not available.
UV 0 out of 12
Pollen Not available.
Air Quality Not available.
Flu Activity Not available.
METAR EEKA 280250Z 18006KT 140V220 9999 -RA SCT008 BKN064 17/16 Q1007

10-Day Weather Forecast

×

Almanac

Astronomy

Aug. 28, 2015 Rise Set
Actual Time
Civil Twilight
Nautical Twilight
Astronomical Twilight
Moon
Length of Visible Light
Length of Day
Tomorrow will be .
, % of the Moon is Illuminated

Today's Extremes

Country Highs Country Lows

Community

WunderPhotos

Upload Photos

1,850,310 photos uploaded!

WunderBlogs® & News

Nearby

Air Quality

  Air Quality AQ Index Pollutant
Not available.

Snow Depth

Station Depth Elevation

Earthquake Activity

City Distance Mag. Time & Date
Minimum magnitude displayed is 2.5.

Coastal Water Temperatures

Place Temperature

Stations

Nearby Weather Stations

Station Location Temp. Windchill Dew Point Humidity Wind Precip. Elev Updated Type